sensor_id;sensor_type;location;lat;lon;timestamp;P1;durP1;ratioP1;P2;durP2;ratioP2
60203;SDS011;46068;52.132;4.618;2023-08-07T00:00:22;8.30;;;1.90;;
60203;SDS011;46068;52.132;4.618;2023-08-07T00:02:48;15.90;;;2.20;;
60203;SDS011;46068;52.132;4.618;2023-08-07T00:05:15;15.52;;;2.30;;
60203;SDS011;46068;52.132;4.618;2023-08-07T00:07:42;11.25;;;2.33;;
60203;SDS011;46068;52.132;4.618;2023-08-07T00:10:08;10.23;;;1.58;;
60203;SDS011;46068;52.132;4.618;2023-08-07T00:12:36;8.00;;;1.65;;
60203;SDS011;46068;52.132;4.618;2023-08-07T00:15:03;9.45;;;1.65;;
60203;SDS011;46068;52.132;4.618;2023-08-07T00:17:29;10.43;;;2.03;;
60203;SDS011;46068;52.132;4.618;2023-08-07T00:19:55;7.90;;;1.60;;
60203;SDS011;46068;52.132;4.618;2023-08-07T00:22:22;15.32;;;2.05;;
60203;SDS011;46068;52.132;4.618;2023-08-07T00:24:48;8.35;;;2.15;;
60203;SDS011;46068;52.132;4.618;2023-08-07T00:27:14;6.55;;;1.77;;
60203;SDS011;46068;52.132;4.618;2023-08-07T00:29:42;11.02;;;2.00;;
60203;SDS011;46068;52.132;4.618;2023-08-07T00:32:08;12.00;;;1.75;;
60203;SDS011;46068;52.132;4.618;2023-08-07T00:34:35;12.63;;;2.10;;
60203;SDS011;46068;52.132;4.618;2023-08-07T00:37:01;10.13;;;2.10;;
60203;SDS011;46068;52.132;4.618;2023-08-07T00:39:27;8.52;;;1.75;;
60203;SDS011;46068;52.132;4.618;2023-08-07T00:41:53;11.80;;;1.67;;
60203;SDS011;46068;52.132;4.618;2023-08-07T00:44:20;5.47;;;1.20;;
60203;SDS011;46068;52.132;4.618;2023-08-07T00:46:47;6.43;;;1.30;;
60203;SDS011;46068;52.132;4.618;2023-08-07T00:49:13;9.70;;;1.60;;
60203;SDS011;46068;52.132;4.618;2023-08-07T00:51:40;9.07;;;1.58;;
60203;SDS011;46068;52.132;4.618;2023-08-07T00:54:07;5.05;;;1.27;;
60203;SDS011;46068;52.132;4.618;2023-08-07T00:56:36;10.27;;;1.80;;
60203;SDS011;46068;52.132;4.618;2023-08-07T00:59:02;12.68;;;2.38;;
60203;SDS011;46068;52.132;4.618;2023-08-07T01:01:29;10.25;;;2.00;;
60203;SDS011;46068;52.132;4.618;2023-08-07T01:03:57;5.10;;;1.50;;
60203;SDS011;46068;52.132;4.618;2023-08-07T01:06:23;8.57;;;1.83;;
60203;SDS011;46068;52.132;4.618;2023-08-07T01:08:49;13.00;;;1.73;;
60203;SDS011;46068;52.132;4.618;2023-08-07T01:11:18;14.18;;;2.20;;
60203;SDS011;46068;52.132;4.618;2023-08-07T01:13:48;7.68;;;1.70;;
60203;SDS011;46068;52.132;4.618;2023-08-07T01:16:17;10.80;;;1.77;;
60203;SDS011;46068;52.132;4.618;2023-08-07T01:18:44;12.43;;;1.90;;
60203;SDS011;46068;52.132;4.618;2023-08-07T01:21:18;12.93;;;2.50;;
60203;SDS011;46068;52.132;4.618;2023-08-07T01:23:46;7.70;;;1.70;;
60203;SDS011;46068;52.132;4.618;2023-08-07T01:26:13;12.88;;;1.90;;
60203;SDS011;46068;52.132;4.618;2023-08-07T01:28:41;13.15;;;2.50;;
60203;SDS011;46068;52.132;4.618;2023-08-07T01:31:10;8.00;;;1.88;;
60203;SDS011;46068;52.132;4.618;2023-08-07T01:33:39;8.95;;;1.95;;
60203;SDS011;46068;52.132;4.618;2023-08-07T01:36:08;10.52;;;1.67;;
60203;SDS011;46068;52.132;4.618;2023-08-07T01:38:35;8.70;;;1.95;;
60203;SDS011;46068;52.132;4.618;2023-08-07T01:41:03;12.27;;;1.90;;
60203;SDS011;46068;52.132;4.618;2023-08-07T01:43:30;8.45;;;1.85;;
60203;SDS011;46068;52.132;4.618;2023-08-07T01:45:57;18.70;;;2.08;;
60203;SDS011;46068;52.132;4.618;2023-08-07T01:48:24;21.23;;;2.55;;
60203;SDS011;46068;52.132;4.618;2023-08-07T01:50:51;6.70;;;1.63;;
60203;SDS011;46068;52.132;4.618;2023-08-07T01:53:17;13.70;;;2.42;;
60203;SDS011;46068;52.132;4.618;2023-08-07T01:55:43;15.57;;;2.20;;
60203;SDS011;46068;52.132;4.618;2023-08-07T01:58:11;11.05;;;1.90;;
60203;SDS011;46068;52.132;4.618;2023-08-07T02:00:37;10.80;;;1.90;;
60203;SDS011;46068;52.132;4.618;2023-08-07T02:03:03;9.73;;;1.88;;
60203;SDS011;46068;52.132;4.618;2023-08-07T02:05:29;10.93;;;2.10;;
60203;SDS011;46068;52.132;4.618;2023-08-07T02:07:56;11.38;;;1.90;;
60203;SDS011;46068;52.132;4.618;2023-08-07T02:10:22;11.18;;;1.77;;
60203;SDS011;46068;52.132;4.618;2023-08-07T02:12:49;14.32;;;2.53;;
60203;SDS011;46068;52.132;4.618;2023-08-07T02:15:16;12.93;;;2.33;;
60203;SDS011;46068;52.132;4.618;2023-08-07T02:17:43;10.65;;;1.98;;
60203;SDS011;46068;52.132;4.618;2023-08-07T02:20:09;10.52;;;2.22;;
60203;SDS011;46068;52.132;4.618;2023-08-07T02:22:36;10.43;;;2.28;;
60203;SDS011;46068;52.132;4.618;2023-08-07T02:25:01;11.77;;;2.35;;
60203;SDS011;46068;52.132;4.618;2023-08-07T02:27:27;16.17;;;2.63;;
60203;SDS011;46068;52.132;4.618;2023-08-07T02:29:54;13.63;;;2.45;;
60203;SDS011;46068;52.132;4.618;2023-08-07T02:32:22;9.77;;;2.35;;
60203;SDS011;46068;52.132;4.618;2023-08-07T02:34:48;11.88;;;2.63;;
60203;SDS011;46068;52.132;4.618;2023-08-07T02:37:14;10.52;;;2.40;;
60203;SDS011;46068;52.132;4.618;2023-08-07T02:39:41;7.28;;;1.92;;
60203;SDS011;46068;52.132;4.618;2023-08-07T02:42:07;11.15;;;2.88;;
60203;SDS011;46068;52.132;4.618;2023-08-07T02:44:33;11.63;;;2.60;;
60203;SDS011;46068;52.132;4.618;2023-08-07T02:46:59;9.73;;;2.17;;
60203;SDS011;46068;52.132;4.618;2023-08-07T02:49:27;10.10;;;2.08;;
60203;SDS011;46068;52.132;4.618;2023-08-07T02:51:53;7.95;;;2.03;;
60203;SDS011;46068;52.132;4.618;2023-08-07T02:54:19;7.78;;;1.70;;
60203;SDS011;46068;52.132;4.618;2023-08-07T02:56:46;8.63;;;2.00;;
60203;SDS011;46068;52.132;4.618;2023-08-07T02:59:13;11.48;;;2.10;;
60203;SDS011;46068;52.132;4.618;2023-08-07T03:01:40;9.57;;;2.13;;
60203;SDS011;46068;52.132;4.618;2023-08-07T03:04:06;8.95;;;1.55;;
60203;SDS011;46068;52.132;4.618;2023-08-07T03:06:34;7.70;;;1.88;;
60203;SDS011;46068;52.132;4.618;2023-08-07T03:09:00;11.65;;;1.73;;
60203;SDS011;46068;52.132;4.618;2023-08-07T03:11:26;9.60;;;1.52;;
60203;SDS011;46068;52.132;4.618;2023-08-07T03:13:53;9.50;;;2.10;;
60203;SDS011;46068;52.132;4.618;2023-08-07T03:16:19;8.80;;;1.35;;
60203;SDS011;46068;52.132;4.618;2023-08-07T03:18:45;12.68;;;1.77;;
60203;SDS011;46068;52.132;4.618;2023-08-07T03:21:12;9.95;;;1.65;;
60203;SDS011;46068;52.132;4.618;2023-08-07T03:23:39;12.88;;;1.83;;
60203;SDS011;46068;52.132;4.618;2023-08-07T03:26:06;12.35;;;2.05;;
60203;SDS011;46068;52.132;4.618;2023-08-07T03:28:33;10.15;;;1.95;;
60203;SDS011;46068;52.132;4.618;2023-08-07T03:30:59;7.97;;;1.80;;
60203;SDS011;46068;52.132;4.618;2023-08-07T03:33:26;8.20;;;1.70;;
60203;SDS011;46068;52.132;4.618;2023-08-07T03:35:52;8.90;;;1.77;;
60203;SDS011;46068;52.132;4.618;2023-08-07T03:38:18;9.48;;;1.90;;
60203;SDS011;46068;52.132;4.618;2023-08-07T03:40:46;10.73;;;1.98;;
60203;SDS011;46068;52.132;4.618;2023-08-07T03:43:12;8.10;;;1.88;;
60203;SDS011;46068;52.132;4.618;2023-08-07T03:45:39;7.85;;;2.42;;
60203;SDS011;46068;52.132;4.618;2023-08-07T03:48:05;8.02;;;2.05;;
60203;SDS011;46068;52.132;4.618;2023-08-07T03:50:31;13.45;;;2.25;;
60203;SDS011;46068;52.132;4.618;2023-08-07T03:52:59;11.10;;;2.33;;
60203;SDS011;46068;52.132;4.618;2023-08-07T03:55:26;5.38;;;1.77;;
60203;SDS011;46068;52.132;4.618;2023-08-07T03:57:53;11.23;;;2.20;;
60203;SDS011;46068;52.132;4.618;2023-08-07T04:00:20;12.40;;;2.00;;
60203;SDS011;46068;52.132;4.618;2023-08-07T04:02:46;11.55;;;2.05;;
60203;SDS011;46068;52.132;4.618;2023-08-07T04:05:13;11.75;;;2.08;;
60203;SDS011;46068;52.132;4.618;2023-08-07T04:07:39;13.32;;;2.42;;
60203;SDS011;46068;52.132;4.618;2023-08-07T04:10:05;18.65;;;2.30;;
60203;SDS011;46068;52.132;4.618;2023-08-07T04:12:32;21.20;;;2.65;;
60203;SDS011;46068;52.132;4.618;2023-08-07T04:14:59;9.55;;;2.22;;
60203;SDS011;46068;52.132;4.618;2023-08-07T04:17:25;9.07;;;2.15;;
60203;SDS011;46068;52.132;4.618;2023-08-07T04:19:52;11.43;;;2.40;;
60203;SDS011;46068;52.132;4.618;2023-08-07T04:22:19;12.60;;;2.17;;
60203;SDS011;46068;52.132;4.618;2023-08-07T04:24:45;15.25;;;2.20;;
60203;SDS011;46068;52.132;4.618;2023-08-07T04:27:11;17.77;;;2.35;;
60203;SDS011;46068;52.132;4.618;2023-08-07T04:29:38;14.68;;;2.45;;
60203;SDS011;46068;52.132;4.618;2023-08-07T04:32:06;17.65;;;2.05;;
60203;SDS011;46068;52.132;4.618;2023-08-07T04:34:32;16.63;;;2.45;;
60203;SDS011;46068;52.132;4.618;2023-08-07T04:37:00;13.02;;;2.00;;
60203;SDS011;46068;52.132;4.618;2023-08-07T04:39:26;10.90;;;2.13;;
60203;SDS011;46068;52.132;4.618;2023-08-07T04:41:53;13.82;;;2.50;;
60203;SDS011;46068;52.132;4.618;2023-08-07T04:44:19;10.55;;;2.63;;
60203;SDS011;46068;52.132;4.618;2023-08-07T04:46:45;17.02;;;2.50;;
60203;SDS011;46068;52.132;4.618;2023-08-07T04:49:13;9.63;;;1.80;;
60203;SDS011;46068;52.132;4.618;2023-08-07T04:51:39;8.82;;;1.95;;
60203;SDS011;46068;52.132;4.618;2023-08-07T04:54:05;7.15;;;2.25;;
60203;SDS011;46068;52.132;4.618;2023-08-07T04:56:32;13.15;;;2.10;;
60203;SDS011;46068;52.132;4.618;2023-08-07T04:58:58;15.48;;;2.00;;
60203;SDS011;46068;52.132;4.618;2023-08-07T05:01:25;15.57;;;2.60;;
60203;SDS011;46068;52.132;4.618;2023-08-07T05:03:52;10.73;;;2.20;;
60203;SDS011;46068;52.132;4.618;2023-08-07T05:06:19;17.40;;;2.30;;
60203;SDS011;46068;52.132;4.618;2023-08-07T05:08:45;15.48;;;2.53;;
60203;SDS011;46068;52.132;4.618;2023-08-07T05:11:12;8.35;;;1.52;;
60203;SDS011;46068;52.132;4.618;2023-08-07T05:13:38;7.70;;;1.50;;
60203;SDS011;46068;52.132;4.618;2023-08-07T05:16:04;8.90;;;1.60;;
60203;SDS011;46068;52.132;4.618;2023-08-07T05:18:30;10.57;;;1.70;;
60203;SDS011;46068;52.132;4.618;2023-08-07T05:20:57;9.63;;;1.88;;
60203;SDS011;46068;52.132;4.618;2023-08-07T05:23:24;6.78;;;1.50;;
60203;SDS011;46068;52.132;4.618;2023-08-07T05:25:51;10.35;;;1.73;;
60203;SDS011;46068;52.132;4.618;2023-08-07T05:28:17;5.35;;;1.15;;
60203;SDS011;46068;52.132;4.618;2023-08-07T05:30:44;14.82;;;1.98;;
60203;SDS011;46068;52.132;4.618;2023-08-07T05:33:10;11.13;;;1.77;;
60203;SDS011;46068;52.132;4.618;2023-08-07T05:35:37;13.30;;;2.15;;
60203;SDS011;46068;52.132;4.618;2023-08-07T05:38:03;10.95;;;2.33;;
60203;SDS011;46068;52.132;4.618;2023-08-07T05:40:31;12.38;;;2.08;;
60203;SDS011;46068;52.132;4.618;2023-08-07T05:43:00;10.73;;;1.90;;
60203;SDS011;46068;52.132;4.618;2023-08-07T05:45:26;15.35;;;2.40;;
60203;SDS011;46068;52.132;4.618;2023-08-07T05:47:53;11.73;;;2.53;;
60203;SDS011;46068;52.132;4.618;2023-08-07T05:50:19;8.18;;;2.05;;
60203;SDS011;46068;52.132;4.618;2023-08-07T05:52:45;11.63;;;1.85;;
60203;SDS011;46068;52.132;4.618;2023-08-07T05:55:12;11.55;;;2.10;;
60203;SDS011;46068;52.132;4.618;2023-08-07T05:57:39;6.60;;;1.40;;
60203;SDS011;46068;52.132;4.618;2023-08-07T06:00:06;7.53;;;1.65;;
60203;SDS011;46068;52.132;4.618;2023-08-07T06:02:38;8.07;;;2.17;;
60203;SDS011;46068;52.132;4.618;2023-08-07T06:05:05;10.55;;;1.73;;
60203;SDS011;46068;52.132;4.618;2023-08-07T06:07:31;10.70;;;1.98;;
60203;SDS011;46068;52.132;4.618;2023-08-07T06:09:58;11.23;;;2.30;;
60203;SDS011;46068;52.132;4.618;2023-08-07T06:12:24;10.45;;;2.53;;
60203;SDS011;46068;52.132;4.618;2023-08-07T06:14:52;15.20;;;2.63;;
60203;SDS011;46068;52.132;4.618;2023-08-07T06:17:18;10.07;;;2.30;;
60203;SDS011;46068;52.132;4.618;2023-08-07T06:19:44;14.95;;;2.88;;
60203;SDS011;46068;52.132;4.618;2023-08-07T06:22:11;18.33;;;2.67;;
60203;SDS011;46068;52.132;4.618;2023-08-07T06:24:37;10.35;;;2.15;;
60203;SDS011;46068;52.132;4.618;2023-08-07T06:27:03;13.65;;;2.70;;
60203;SDS011;46068;52.132;4.618;2023-08-07T06:29:30;11.82;;;2.45;;
60203;SDS011;46068;52.132;4.618;2023-08-07T06:31:57;13.40;;;2.63;;
60203;SDS011;46068;52.132;4.618;2023-08-07T06:34:24;14.27;;;2.42;;
60203;SDS011;46068;52.132;4.618;2023-08-07T06:36:50;12.25;;;2.60;;
60203;SDS011;46068;52.132;4.618;2023-08-07T06:39:16;15.52;;;2.47;;
60203;SDS011;46068;52.132;4.618;2023-08-07T06:41:43;12.23;;;2.42;;
60203;SDS011;46068;52.132;4.618;2023-08-07T06:44:09;14.90;;;3.35;;
60203;SDS011;46068;52.132;4.618;2023-08-07T06:46:35;13.57;;;2.55;;
60203;SDS011;46068;52.132;4.618;2023-08-07T06:49:03;15.63;;;2.30;;
60203;SDS011;46068;52.132;4.618;2023-08-07T06:51:29;13.10;;;2.67;;
60203;SDS011;46068;52.132;4.618;2023-08-07T06:53:56;14.43;;;2.58;;
60203;SDS011;46068;52.132;4.618;2023-08-07T06:56:22;10.75;;;2.22;;
60203;SDS011;46068;52.132;4.618;2023-08-07T06:58:48;7.75;;;1.95;;
60203;SDS011;46068;52.132;4.618;2023-08-07T07:01:14;7.93;;;2.10;;
60203;SDS011;46068;52.132;4.618;2023-08-07T07:03:41;9.55;;;2.10;;
60203;SDS011;46068;52.132;4.618;2023-08-07T07:06:08;9.57;;;2.30;;
60203;SDS011;46068;52.132;4.618;2023-08-07T07:08:35;12.35;;;2.40;;
60203;SDS011;46068;52.132;4.618;2023-08-07T07:11:01;14.13;;;2.13;;
60203;SDS011;46068;52.132;4.618;2023-08-07T07:13:29;10.65;;;2.45;;
60203;SDS011;46068;52.132;4.618;2023-08-07T07:15:55;9.75;;;2.05;;
60203;SDS011;46068;52.132;4.618;2023-08-07T07:18:21;13.23;;;2.20;;
60203;SDS011;46068;52.132;4.618;2023-08-07T07:20:48;9.05;;;2.05;;
60203;SDS011;46068;52.132;4.618;2023-08-07T07:23:18;5.97;;;2.00;;
60203;SDS011;46068;52.132;4.618;2023-08-07T07:25:45;9.20;;;1.88;;
60203;SDS011;46068;52.132;4.618;2023-08-07T07:28:11;7.25;;;1.90;;
60203;SDS011;46068;52.132;4.618;2023-08-07T07:30:38;9.70;;;2.10;;
60203;SDS011;46068;52.132;4.618;2023-08-07T07:33:05;7.30;;;2.28;;
60203;SDS011;46068;52.132;4.618;2023-08-07T07:35:31;11.23;;;1.70;;
60203;SDS011;46068;52.132;4.618;2023-08-07T07:37:58;6.10;;;1.60;;
60203;SDS011;46068;52.132;4.618;2023-08-07T07:40:25;10.82;;;1.98;;
60203;SDS011;46068;52.132;4.618;2023-08-07T07:42:52;8.65;;;1.80;;
60203;SDS011;46068;52.132;4.618;2023-08-07T07:45:18;6.72;;;1.60;;
60203;SDS011;46068;52.132;4.618;2023-08-07T07:47:44;8.27;;;1.88;;
60203;SDS011;46068;52.132;4.618;2023-08-07T07:50:11;6.32;;;1.67;;
60203;SDS011;46068;52.132;4.618;2023-08-07T07:52:38;8.38;;;1.60;;
60203;SDS011;46068;52.132;4.618;2023-08-07T07:55:04;9.10;;;1.88;;
60203;SDS011;46068;52.132;4.618;2023-08-07T07:57:32;9.43;;;1.60;;
60203;SDS011;46068;52.132;4.618;2023-08-07T07:59:58;6.82;;;1.38;;
60203;SDS011;46068;52.132;4.618;2023-08-07T08:02:26;11.32;;;1.85;;
60203;SDS011;46068;52.132;4.618;2023-08-07T08:04:52;7.57;;;1.38;;
60203;SDS011;46068;52.132;4.618;2023-08-07T08:07:18;11.40;;;2.05;;
60203;SDS011;46068;52.132;4.618;2023-08-07T08:09:44;5.45;;;1.40;;
60203;SDS011;46068;52.132;4.618;2023-08-07T08:12:11;8.50;;;1.90;;
60203;SDS011;46068;52.132;4.618;2023-08-07T08:14:38;9.98;;;1.90;;
60203;SDS011;46068;52.132;4.618;2023-08-07T08:17:05;10.75;;;1.75;;
60203;SDS011;46068;52.132;4.618;2023-08-07T08:19:31;6.97;;;1.25;;
60203;SDS011;46068;52.132;4.618;2023-08-07T08:21:57;5.32;;;1.50;;
60203;SDS011;46068;52.132;4.618;2023-08-07T08:24:24;8.02;;;1.75;;
60203;SDS011;46068;52.132;4.618;2023-08-07T08:26:50;8.25;;;1.55;;
60203;SDS011;46068;52.132;4.618;2023-08-07T08:29:16;9.27;;;1.90;;
60203;SDS011;46068;52.132;4.618;2023-08-07T08:31:44;6.32;;;1.60;;
60203;SDS011;46068;52.132;4.618;2023-08-07T08:34:10;7.80;;;1.50;;
60203;SDS011;46068;52.132;4.618;2023-08-07T08:36:37;8.63;;;1.88;;
60203;SDS011;46068;52.132;4.618;2023-08-07T08:39:03;7.07;;;1.70;;
60203;SDS011;46068;52.132;4.618;2023-08-07T08:41:29;8.45;;;1.70;;
60203;SDS011;46068;52.132;4.618;2023-08-07T08:43:56;9.45;;;1.60;;
60203;SDS011;46068;52.132;4.618;2023-08-07T08:46:23;4.72;;;1.00;;
60203;SDS011;46068;52.132;4.618;2023-08-07T08:48:52;5.45;;;1.45;;
60203;SDS011;46068;52.132;4.618;2023-08-07T08:51:21;7.18;;;1.30;;
60203;SDS011;46068;52.132;4.618;2023-08-07T08:53:47;5.15;;;1.70;;
60203;SDS011;46068;52.132;4.618;2023-08-07T08:56:15;8.68;;;1.63;;
60203;SDS011;46068;52.132;4.618;2023-08-07T08:58:41;4.82;;;1.20;;
60203;SDS011;46068;52.132;4.618;2023-08-07T09:01:08;8.02;;;1.42;;
60203;SDS011;46068;52.132;4.618;2023-08-07T09:03:35;4.55;;;1.50;;
60203;SDS011;46068;52.132;4.618;2023-08-07T09:06:03;7.47;;;1.73;;
60203;SDS011;46068;52.132;4.618;2023-08-07T09:08:31;9.88;;;1.90;;
60203;SDS011;46068;52.132;4.618;2023-08-07T09:10:58;8.70;;;1.63;;
60203;SDS011;46068;52.132;4.618;2023-08-07T09:13:25;10.25;;;1.98;;
60203;SDS011;46068;52.132;4.618;2023-08-07T09:15:52;5.90;;;1.50;;
60203;SDS011;46068;52.132;4.618;2023-08-07T09:18:19;5.68;;;1.65;;
60203;SDS011;46068;52.132;4.618;2023-08-07T09:20:46;10.30;;;1.92;;
60203;SDS011;46068;52.132;4.618;2023-08-07T09:23:15;5.80;;;1.67;;
60203;SDS011;46068;52.132;4.618;2023-08-07T09:25:42;6.47;;;1.70;;
60203;SDS011;46068;52.132;4.618;2023-08-07T09:28:08;7.28;;;1.77;;
60203;SDS011;46068;52.132;4.618;2023-08-07T09:30:35;9.07;;;1.70;;
60203;SDS011;46068;52.132;4.618;2023-08-07T09:33:03;4.45;;;1.63;;
60203;SDS011;46068;52.132;4.618;2023-08-07T09:35:30;8.52;;;1.60;;
60203;SDS011;46068;52.132;4.618;2023-08-07T09:37:56;9.13;;;1.55;;
60203;SDS011;46068;52.132;4.618;2023-08-07T09:40:24;10.98;;;2.00;;
60203;SDS011;46068;52.132;4.618;2023-08-07T09:42:50;8.25;;;1.92;;
60203;SDS011;46068;52.132;4.618;2023-08-07T09:45:21;4.28;;;1.33;;
60203;SDS011;46068;52.132;4.618;2023-08-07T09:47:54;8.70;;;1.88;;
60203;SDS011;46068;52.132;4.618;2023-08-07T09:50:22;5.25;;;1.33;;
60203;SDS011;46068;52.132;4.618;2023-08-07T09:52:49;4.95;;;1.30;;
60203;SDS011;46068;52.132;4.618;2023-08-07T09:55:15;6.72;;;1.52;;
60203;SDS011;46068;52.132;4.618;2023-08-07T09:57:43;4.85;;;1.30;;
60203;SDS011;46068;52.132;4.618;2023-08-07T10:00:10;4.38;;;1.27;;
60203;SDS011;46068;52.132;4.618;2023-08-07T10:02:36;4.68;;;1.33;;
60203;SDS011;46068;52.132;4.618;2023-08-07T10:05:03;7.30;;;1.42;;
60203;SDS011;46068;52.132;4.618;2023-08-07T10:07:30;5.40;;;1.38;;
60203;SDS011;46068;52.132;4.618;2023-08-07T10:09:56;3.47;;;1.15;;
60203;SDS011;46068;52.132;4.618;2023-08-07T10:12:24;5.35;;;1.33;;
60203;SDS011;46068;52.132;4.618;2023-08-07T10:14:52;6.53;;;1.25;;
60203;SDS011;46068;52.132;4.618;2023-08-07T10:17:19;4.43;;;1.30;;
60203;SDS011;46068;52.132;4.618;2023-08-07T10:19:47;2.65;;;1.10;;
60203;SDS011;46068;52.132;4.618;2023-08-07T10:22:13;4.22;;;1.38;;
60203;SDS011;46068;52.132;4.618;2023-08-07T10:24:40;4.75;;;1.52;;
60203;SDS011;46068;52.132;4.618;2023-08-07T10:27:08;6.90;;;1.40;;
60203;SDS011;46068;52.132;4.618;2023-08-07T10:29:35;6.63;;;1.52;;
60203;SDS011;46068;52.132;4.618;2023-08-07T10:32:04;6.75;;;1.50;;
60203;SDS011;46068;52.132;4.618;2023-08-07T10:34:32;4.70;;;1.40;;
60203;SDS011;46068;52.132;4.618;2023-08-07T10:36:59;5.47;;;1.23;;
60203;SDS011;46068;52.132;4.618;2023-08-07T10:39:25;5.32;;;1.95;;
60203;SDS011;46068;52.132;4.618;2023-08-07T10:41:52;6.97;;;1.33;;
60203;SDS011;46068;52.132;4.618;2023-08-07T10:44:19;4.47;;;1.15;;
60203;SDS011;46068;52.132;4.618;2023-08-07T10:46:49;7.93;;;1.40;;
60203;SDS011;46068;52.132;4.618;2023-08-07T10:49:31;6.95;;;1.75;;
60203;SDS011;46068;52.132;4.618;2023-08-07T10:51:58;6.00;;;1.50;;
60203;SDS011;46068;52.132;4.618;2023-08-07T10:54:24;8.60;;;1.48;;
60203;SDS011;46068;52.132;4.618;2023-08-07T10:56:52;6.20;;;1.23;;
60203;SDS011;46068;52.132;4.618;2023-08-07T10:59:18;6.25;;;1.38;;
60203;SDS011;46068;52.132;4.618;2023-08-07T11:01:49;5.03;;;1.20;;
60203;SDS011;46068;52.132;4.618;2023-08-07T11:04:16;7.85;;;1.75;;
60203;SDS011;46068;52.132;4.618;2023-08-07T11:06:46;3.53;;;1.30;;
60203;SDS011;46068;52.132;4.618;2023-08-07T11:09:13;8.25;;;1.40;;
60203;SDS011;46068;52.132;4.618;2023-08-07T11:11:40;5.38;;;1.30;;
60203;SDS011;46068;52.132;4.618;2023-08-07T11:14:06;6.07;;;1.50;;
60203;SDS011;46068;52.132;4.618;2023-08-07T11:16:34;6.07;;;1.45;;
60203;SDS011;46068;52.132;4.618;2023-08-07T11:19:00;3.67;;;1.25;;
60203;SDS011;46068;52.132;4.618;2023-08-07T11:21:26;5.38;;;1.35;;
60203;SDS011;46068;52.132;4.618;2023-08-07T11:23:54;6.10;;;1.38;;
60203;SDS011;46068;52.132;4.618;2023-08-07T11:26:20;9.73;;;1.90;;
60203;SDS011;46068;52.132;4.618;2023-08-07T11:28:47;7.13;;;1.40;;
60203;SDS011;46068;52.132;4.618;2023-08-07T11:31:13;6.32;;;1.40;;
60203;SDS011;46068;52.132;4.618;2023-08-07T11:33:40;6.30;;;1.52;;
60203;SDS011;46068;52.132;4.618;2023-08-07T11:36:09;9.48;;;1.65;;
60203;SDS011;46068;52.132;4.618;2023-08-07T11:38:37;2.33;;;1.00;;
60203;SDS011;46068;52.132;4.618;2023-08-07T11:41:05;4.55;;;1.33;;
60203;SDS011;46068;52.132;4.618;2023-08-07T11:43:32;3.25;;;1.08;;
60203;SDS011;46068;52.132;4.618;2023-08-07T11:46:00;4.85;;;1.25;;
60203;SDS011;46068;52.132;4.618;2023-08-07T11:48:27;5.05;;;1.30;;
60203;SDS011;46068;52.132;4.618;2023-08-07T11:50:54;5.88;;;1.33;;
60203;SDS011;46068;52.132;4.618;2023-08-07T11:53:20;5.25;;;1.38;;
60203;SDS011;46068;52.132;4.618;2023-08-07T11:55:47;4.45;;;1.20;;
60203;SDS011;46068;52.132;4.618;2023-08-07T11:58:15;6.25;;;1.30;;
60203;SDS011;46068;52.132;4.618;2023-08-07T12:00:43;5.15;;;1.20;;
60203;SDS011;46068;52.132;4.618;2023-08-07T12:03:22;6.82;;;1.33;;
60203;SDS011;46068;52.132;4.618;2023-08-07T12:05:50;3.78;;;1.27;;
60203;SDS011;46068;52.132;4.618;2023-08-07T12:08:16;5.45;;;1.33;;
60203;SDS011;46068;52.132;4.618;2023-08-07T12:10:42;3.50;;;1.20;;
60203;SDS011;46068;52.132;4.618;2023-08-07T12:13:09;2.42;;;0.85;;
60203;SDS011;46068;52.132;4.618;2023-08-07T12:15:38;5.15;;;1.05;;
60203;SDS011;46068;52.132;4.618;2023-08-07T12:18:06;2.22;;;1.10;;
60203;SDS011;46068;52.132;4.618;2023-08-07T12:20:33;3.75;;;1.10;;
60203;SDS011;46068;52.132;4.618;2023-08-07T12:22:59;6.80;;;1.33;;
60203;SDS011;46068;52.132;4.618;2023-08-07T12:25:25;3.95;;;1.23;;
60203;SDS011;46068;52.132;4.618;2023-08-07T12:27:52;6.57;;;1.40;;
60203;SDS011;46068;52.132;4.618;2023-08-07T12:30:18;5.35;;;1.40;;
60203;SDS011;46068;52.132;4.618;2023-08-07T12:32:46;8.00;;;1.35;;
60203;SDS011;46068;52.132;4.618;2023-08-07T12:35:12;5.95;;;1.38;;
60203;SDS011;46068;52.132;4.618;2023-08-07T12:37:38;6.03;;;1.73;;
60203;SDS011;46068;52.132;4.618;2023-08-07T12:40:05;4.57;;;1.20;;
60203;SDS011;46068;52.132;4.618;2023-08-07T12:42:31;6.10;;;1.42;;
60203;SDS011;46068;52.132;4.618;2023-08-07T12:44:57;3.95;;;1.30;;
60203;SDS011;46068;52.132;4.618;2023-08-07T12:47:24;4.78;;;1.40;;
60203;SDS011;46068;52.132;4.618;2023-08-07T12:49:51;5.10;;;1.52;;
60203;SDS011;46068;52.132;4.618;2023-08-07T12:52:17;3.97;;;1.25;;
60203;SDS011;46068;52.132;4.618;2023-08-07T12:54:44;5.30;;;1.60;;
60203;SDS011;46068;52.132;4.618;2023-08-07T12:57:10;5.18;;;1.50;;
60203;SDS011;46068;52.132;4.618;2023-08-07T12:59:36;3.72;;;1.40;;
60203;SDS011;46068;52.132;4.618;2023-08-07T13:02:03;3.83;;;1.33;;
60203;SDS011;46068;52.132;4.618;2023-08-07T13:04:29;4.57;;;1.40;;
60203;SDS011;46068;52.132;4.618;2023-08-07T13:06:59;4.10;;;1.38;;
60203;SDS011;46068;52.132;4.618;2023-08-07T13:09:25;4.63;;;1.33;;
60203;SDS011;46068;52.132;4.618;2023-08-07T13:11:52;5.75;;;1.38;;
60203;SDS011;46068;52.132;4.618;2023-08-07T13:14:18;3.65;;;1.33;;
60203;SDS011;46068;52.132;4.618;2023-08-07T13:16:44;5.07;;;1.20;;
60203;SDS011;46068;52.132;4.618;2023-08-07T13:19:11;3.75;;;1.30;;
60203;SDS011;46068;52.132;4.618;2023-08-07T13:21:37;7.88;;;1.70;;
60203;SDS011;46068;52.132;4.618;2023-08-07T13:24:05;4.75;;;1.40;;
60203;SDS011;46068;52.132;4.618;2023-08-07T13:26:31;5.07;;;1.90;;
60203;SDS011;46068;52.132;4.618;2023-08-07T13:28:57;6.10;;;1.85;;
60203;SDS011;46068;52.132;4.618;2023-08-07T13:31:23;7.03;;;1.75;;
60203;SDS011;46068;52.132;4.618;2023-08-07T13:33:50;5.45;;;1.65;;
60203;SDS011;46068;52.132;4.618;2023-08-07T13:36:16;3.58;;;1.55;;
60203;SDS011;46068;52.132;4.618;2023-08-07T13:38:42;4.10;;;1.30;;
60203;SDS011;46068;52.132;4.618;2023-08-07T13:41:10;6.32;;;1.75;;
60203;SDS011;46068;52.132;4.618;2023-08-07T13:43:36;3.60;;;1.40;;
60203;SDS011;46068;52.132;4.618;2023-08-07T13:46:03;2.80;;;1.33;;
60203;SDS011;46068;52.132;4.618;2023-08-07T13:48:29;2.95;;;1.13;;
60203;SDS011;46068;52.132;4.618;2023-08-07T13:50:58;3.50;;;1.50;;
60203;SDS011;46068;52.132;4.618;2023-08-07T13:53:25;2.55;;;1.20;;
60203;SDS011;46068;52.132;4.618;2023-08-07T13:55:54;3.17;;;1.60;;
60203;SDS011;46068;52.132;4.618;2023-08-07T13:58:21;2.88;;;1.35;;
60203;SDS011;46068;52.132;4.618;2023-08-07T14:00:48;6.95;;;1.58;;
60203;SDS011;46068;52.132;4.618;2023-08-07T14:03:14;7.00;;;1.42;;
60203;SDS011;46068;52.132;4.618;2023-08-07T14:05:40;4.72;;;1.58;;
60203;SDS011;46068;52.132;4.618;2023-08-07T14:08:06;3.40;;;1.35;;
60203;SDS011;46068;52.132;4.618;2023-08-07T14:10:35;5.18;;;1.83;;
60203;SDS011;46068;52.132;4.618;2023-08-07T14:13:04;8.15;;;1.45;;
60203;SDS011;46068;52.132;4.618;2023-08-07T14:15:32;3.65;;;1.48;;
60203;SDS011;46068;52.132;4.618;2023-08-07T14:17:58;8.70;;;1.70;;
60203;SDS011;46068;52.132;4.618;2023-08-07T14:20:25;5.00;;;1.70;;
60203;SDS011;46068;52.132;4.618;2023-08-07T14:22:51;3.65;;;1.80;;
60203;SDS011;46068;52.132;4.618;2023-08-07T14:25:17;7.88;;;1.95;;
60203;SDS011;46068;52.132;4.618;2023-08-07T14:27:46;4.57;;;1.83;;
60203;SDS011;46068;52.132;4.618;2023-08-07T14:30:12;4.10;;;1.50;;
60203;SDS011;46068;52.132;4.618;2023-08-07T14:32:40;3.92;;;1.45;;
60203;SDS011;46068;52.132;4.618;2023-08-07T14:35:07;3.33;;;1.60;;
60203;SDS011;46068;52.132;4.618;2023-08-07T14:37:33;6.53;;;2.05;;
60203;SDS011;46068;52.132;4.618;2023-08-07T14:39:59;4.30;;;1.52;;